メインページ
METAR-TAF:

METAR-TAF

空港 :

フェアバンクス国際空港

フェアバンクス, アラスカ州, アメリカ合衆国

緯度: 64-48-14N, 経度: 147-52-34W, 海抜: 132m

現時点の気象観測

当レポートは56分前の11:53(UTC)に作成
変向風 5kt
気温 7°C
湿度 87%
気圧 1024 hPa
視程: 16.1km
高度3000ftの千切れ雲あり
高度4500ftの曇り

METAR: PAFA 261153Z VRB05KT 10SM BKN030 OVC045 07/05 A3025 RMK AO2 SLP250 60004 70008 T00670050 10089 20067 51017 $

時間: 04:49 (12:49 UTC)

予報

当レポートは1時間10分前の11:39(UTC)に作成
予報は26日の 12時(UTC)から 27日の 18時(UTC)まで有効
西/南西の風 6kt
視程: 10km
高度2500ftの雲は散在している
高度4000ftの千切れ雲あり
近辺でにわか雨
26日の 1330時(UTC)から
西/南西の風 3kt
視程: 9.7km
高度2500ftの千切れ雲あり
高度3500ftの曇り
弱いにわか雨, 靄
26日の 1900時(UTC)から
変向風 4kt
視程: 10km
高度2000ftの雲は散在している
高度3500ftの千切れ雲あり
近辺でにわか雨
27日の 0100時(UTC)から
東/北東の風 3kt
視程: 10km
高度3500ftの雲は散在している
高度12000ftの千切れ雲あり

TAF: PAFA 261139Z 2612/2718 24006KT P6SM VCSH SCT025 BKN040 FM261330 25003KT 6SM -SHRA BR BKN025 OVC035 FM261900 VRB04KT P6SM VCSH SCT020 BKN035 FM270100 07003KT P6SM SCT035 BKN120

4,000以上の空港の気象観測と天気予報(METAR報とTAF報)

利用可能な観測所は地図上に黄色い丸と赤い丸で示す。

丸の上にカーソルを重ねると観測所名を参照できる。

次にクリックすると気象観測と天気予報を参照できる。

マップの切り替え:黒色「×」印の緑ボタンをクリックして拡大、「-」印の緑ボタンをクリックして縮小、緑色の三角印をクリックして隣りの地図に切り替え


METAR-TAF: